<?xml version="1.0" encoding="UTF-8" standalone="no" ?>
<gpx xmlns="http://www.topografix.com/GPX/1/1" xmlns:xsi="http://www.w3.org/2001/XMLSchema-instance" xsi:schemaLocation="http://www.topografix.com/GPX/1/1 http://www.topografix.com/GPX/1/1/gpx.xsd" version="1.1" creator="VisuGPX - https://www.visugpx.com">
  <metadata>
    <name>11029097-enduro ventoux face sud</name>
  </metadata>
  <trk>
    <name><![CDATA[11029097-enduro ventoux face sud]]></name>
    <trkseg>
      <trkpt lat="44.17422" lon="5.28374">
        <ele>1819</ele>
        <time>2020-02-19T07:53:45Z</time>
      </trkpt>
      <trkpt lat="44.17412" lon="5.28386">
        <ele>1820</ele>
        <time>2020-02-19T07:53:48Z</time>
      </trkpt>
      <trkpt lat="44.17351" lon="5.28439">
        <ele>1821</ele>
        <time>2020-02-19T07:54:05Z</time>
      </trkpt>
      <trkpt lat="44.17297" lon="5.28474">
        <ele>1825</ele>
        <time>2020-02-19T07:54:19Z</time>
      </trkpt>
      <trkpt lat="44.17271" lon="5.28533">
        <ele>1827</ele>
        <time>2020-02-19T07:54:30Z</time>
      </trkpt>
      <trkpt lat="44.17235" lon="5.28627">
        <ele>1828</ele>
        <time>2020-02-19T07:54:48Z</time>
      </trkpt>
      <trkpt lat="44.17225" lon="5.28667">
        <ele>1826</ele>
        <time>2020-02-19T07:54:55Z</time>
      </trkpt>
      <trkpt lat="44.17221" lon="5.28672">
        <ele>1826</ele>
        <time>2020-02-19T07:54:57Z</time>
      </trkpt>
      <trkpt lat="44.17205" lon="5.28752">
        <ele>1828</ele>
        <time>2020-02-19T07:55:10Z</time>
      </trkpt>
      <trkpt lat="44.17245" lon="5.28752">
        <ele>1827</ele>
        <time>2020-02-19T07:55:20Z</time>
      </trkpt>
      <trkpt lat="44.17253" lon="5.28786">
        <ele>1825</ele>
        <time>2020-02-19T07:55:26Z</time>
      </trkpt>
      <trkpt lat="44.17248" lon="5.28869">
        <ele>1826</ele>
        <time>2020-02-19T07:55:40Z</time>
      </trkpt>
      <trkpt lat="44.1724" lon="5.28926">
        <ele>1825</ele>
        <time>2020-02-19T07:55:49Z</time>
      </trkpt>
      <trkpt lat="44.17234" lon="5.28942">
        <ele>1823</ele>
        <time>2020-02-19T07:55:53Z</time>
      </trkpt>
      <trkpt lat="44.1719" lon="5.29014">
        <ele>1818</ele>
        <time>2020-02-19T07:56:08Z</time>
      </trkpt>
      <trkpt lat="44.17137" lon="5.29085">
        <ele>1804</ele>
        <time>2020-02-19T07:56:26Z</time>
      </trkpt>
      <trkpt lat="44.1711" lon="5.29135">
        <ele>1791</ele>
        <time>2020-02-19T07:56:36Z</time>
      </trkpt>
      <trkpt lat="44.17089" lon="5.2916">
        <ele>1789</ele>
        <time>2020-02-19T07:56:42Z</time>
      </trkpt>
      <trkpt lat="44.17066" lon="5.29179">
        <ele>1783</ele>
        <time>2020-02-19T07:56:49Z</time>
      </trkpt>
      <trkpt lat="44.17049" lon="5.29187">
        <ele>1779</ele>
        <time>2020-02-19T07:56:53Z</time>
      </trkpt>
      <trkpt lat="44.17032" lon="5.29202">
        <ele>1776</ele>
        <time>2020-02-19T07:56:58Z</time>
      </trkpt>
      <trkpt lat="44.17003" lon="5.29234">
        <ele>1778</ele>
        <time>2020-02-19T07:57:06Z</time>
      </trkpt>
      <trkpt lat="44.16971" lon="5.29275">
        <ele>1772</ele>
        <time>2020-02-19T07:57:16Z</time>
      </trkpt>
      <trkpt lat="44.16936" lon="5.29375">
        <ele>1761</ele>
        <time>2020-02-19T07:57:35Z</time>
      </trkpt>
      <trkpt lat="44.16907" lon="5.29436">
        <ele>1754</ele>
        <time>2020-02-19T07:57:47Z</time>
      </trkpt>
      <trkpt lat="44.16883" lon="5.29497">
        <ele>1737</ele>
        <time>2020-02-19T07:57:59Z</time>
      </trkpt>
      <trkpt lat="44.16875" lon="5.29526">
        <ele>1730</ele>
        <time>2020-02-19T07:58:04Z</time>
      </trkpt>
      <trkpt lat="44.16856" lon="5.29576">
        <ele>1725</ele>
        <time>2020-02-19T07:58:14Z</time>
      </trkpt>
      <trkpt lat="44.16777" lon="5.29711">
        <ele>1722</ele>
        <time>2020-02-19T07:58:43Z</time>
      </trkpt>
      <trkpt lat="44.16764" lon="5.2975">
        <ele>1726</ele>
        <time>2020-02-19T07:58:50Z</time>
      </trkpt>
      <trkpt lat="44.16729" lon="5.29828">
        <ele>1728</ele>
        <time>2020-02-19T07:59:05Z</time>
      </trkpt>
      <trkpt lat="44.16702" lon="5.29896">
        <ele>1724</ele>
        <time>2020-02-19T07:59:18Z</time>
      </trkpt>
      <trkpt lat="44.16638" lon="5.30033">
        <ele>1711</ele>
        <time>2020-02-19T07:59:46Z</time>
      </trkpt>
      <trkpt lat="44.1662" lon="5.30067">
        <ele>1707</ele>
        <time>2020-02-19T07:59:53Z</time>
      </trkpt>
      <trkpt lat="44.16611" lon="5.30094">
        <ele>1705</ele>
        <time>2020-02-19T07:59:58Z</time>
      </trkpt>
      <trkpt lat="44.16565" lon="5.30203">
        <ele>1695</ele>
        <time>2020-02-19T08:00:19Z</time>
      </trkpt>
      <trkpt lat="44.16532" lon="5.30265">
        <ele>1688</ele>
        <time>2020-02-19T08:00:32Z</time>
      </trkpt>
      <trkpt lat="44.16506" lon="5.30345">
        <ele>1686</ele>
        <time>2020-02-19T08:00:47Z</time>
      </trkpt>
      <trkpt lat="44.1649" lon="5.30376">
        <ele>1685</ele>
        <time>2020-02-19T08:00:53Z</time>
      </trkpt>
      <trkpt lat="44.16435" lon="5.30461">
        <ele>1682</ele>
        <time>2020-02-19T08:01:12Z</time>
      </trkpt>
      <trkpt lat="44.16378" lon="5.30566">
        <ele>1679</ele>
        <time>2020-02-19T08:01:34Z</time>
      </trkpt>
      <trkpt lat="44.16358" lon="5.30622">
        <ele>1677</ele>
        <time>2020-02-19T08:01:45Z</time>
      </trkpt>
      <trkpt lat="44.16327" lon="5.30725">
        <ele>1671</ele>
        <time>2020-02-19T08:02:04Z</time>
      </trkpt>
      <trkpt lat="44.16317" lon="5.30808">
        <ele>1661</ele>
        <time>2020-02-19T08:02:18Z</time>
      </trkpt>
      <trkpt lat="44.16306" lon="5.30864">
        <ele>1652</ele>
        <time>2020-02-19T08:02:27Z</time>
      </trkpt>
      <trkpt lat="44.16278" lon="5.30959">
        <ele>1639</ele>
        <time>2020-02-19T08:02:45Z</time>
      </trkpt>
      <trkpt lat="44.16222" lon="5.31115">
        <ele>1634</ele>
        <time>2020-02-19T08:03:14Z</time>
      </trkpt>
      <trkpt lat="44.16205" lon="5.31154">
        <ele>1632</ele>
        <time>2020-02-19T08:03:21Z</time>
      </trkpt>
      <trkpt lat="44.16197" lon="5.31184">
        <ele>1632</ele>
        <time>2020-02-19T08:03:27Z</time>
      </trkpt>
      <trkpt lat="44.16217" lon="5.31328">
        <ele>1635</ele>
        <time>2020-02-19T08:03:51Z</time>
      </trkpt>
      <trkpt lat="44.16224" lon="5.314">
        <ele>1635</ele>
        <time>2020-02-19T08:04:04Z</time>
      </trkpt>
      <trkpt lat="44.16234" lon="5.31459">
        <ele>1633</ele>
        <time>2020-02-19T08:04:14Z</time>
      </trkpt>
      <trkpt lat="44.1623" lon="5.31493">
        <ele>1631</ele>
        <time>2020-02-19T08:04:19Z</time>
      </trkpt>
      <trkpt lat="44.16155" lon="5.31626">
        <ele>1620</ele>
        <time>2020-02-19T08:04:48Z</time>
      </trkpt>
      <trkpt lat="44.16128" lon="5.31679">
        <ele>1619</ele>
        <time>2020-02-19T08:04:59Z</time>
      </trkpt>
      <trkpt lat="44.16099" lon="5.31725">
        <ele>1623</ele>
        <time>2020-02-19T08:05:09Z</time>
      </trkpt>
      <trkpt lat="44.16063" lon="5.31866">
        <ele>1630</ele>
        <time>2020-02-19T08:05:34Z</time>
      </trkpt>
      <trkpt lat="44.16062" lon="5.31886">
        <ele>1631</ele>
        <time>2020-02-19T08:05:37Z</time>
      </trkpt>
      <trkpt lat="44.16066" lon="5.31975">
        <ele>1633</ele>
        <time>2020-02-19T08:05:52Z</time>
      </trkpt>
      <trkpt lat="44.16063" lon="5.32">
        <ele>1633</ele>
        <time>2020-02-19T08:05:57Z</time>
      </trkpt>
      <trkpt lat="44.16042" lon="5.32054">
        <ele>1626</ele>
        <time>2020-02-19T08:06:07Z</time>
      </trkpt>
      <trkpt lat="44.1602" lon="5.32097">
        <ele>1622</ele>
        <time>2020-02-19T08:06:16Z</time>
      </trkpt>
      <trkpt lat="44.16014" lon="5.32118">
        <ele>1620</ele>
        <time>2020-02-19T08:06:20Z</time>
      </trkpt>
      <trkpt lat="44.15984" lon="5.32541">
        <ele>1611</ele>
        <time>2020-02-19T08:07:31Z</time>
      </trkpt>
      <trkpt lat="44.15971" lon="5.32608">
        <ele>1605</ele>
        <time>2020-02-19T08:07:42Z</time>
      </trkpt>
      <trkpt lat="44.15962" lon="5.32637">
        <ele>1602</ele>
        <time>2020-02-19T08:07:48Z</time>
      </trkpt>
      <trkpt lat="44.15939" lon="5.32685">
        <ele>1597</ele>
        <time>2020-02-19T08:07:57Z</time>
      </trkpt>
      <trkpt lat="44.15933" lon="5.32704">
        <ele>1596</ele>
        <time>2020-02-19T08:08:01Z</time>
      </trkpt>
      <trkpt lat="44.15929" lon="5.32774">
        <ele>1590</ele>
        <time>2020-02-19T08:08:13Z</time>
      </trkpt>
      <trkpt lat="44.15915" lon="5.32848">
        <ele>1586</ele>
        <time>2020-02-19T08:08:25Z</time>
      </trkpt>
      <trkpt lat="44.15911" lon="5.32896">
        <ele>1583</ele>
        <time>2020-02-19T08:08:33Z</time>
      </trkpt>
      <trkpt lat="44.15907" lon="5.3291">
        <ele>1581</ele>
        <time>2020-02-19T08:08:36Z</time>
      </trkpt>
      <trkpt lat="44.15894" lon="5.32929">
        <ele>1579</ele>
        <time>2020-02-19T08:08:40Z</time>
      </trkpt>
      <trkpt lat="44.1589" lon="5.32948">
        <ele>1577</ele>
        <time>2020-02-19T08:08:44Z</time>
      </trkpt>
      <trkpt lat="44.15873" lon="5.32981">
        <ele>1574</ele>
        <time>2020-02-19T08:08:51Z</time>
      </trkpt>
      <trkpt lat="44.15847" lon="5.33074">
        <ele>1574</ele>
        <time>2020-02-19T08:09:07Z</time>
      </trkpt>
      <trkpt lat="44.1584" lon="5.33079">
        <ele>1575</ele>
        <time>2020-02-19T08:09:09Z</time>
      </trkpt>
      <trkpt lat="44.15834" lon="5.33072">
        <ele>1576</ele>
        <time>2020-02-19T08:09:11Z</time>
      </trkpt>
      <trkpt lat="44.15838" lon="5.3305">
        <ele>1575</ele>
        <time>2020-02-19T08:09:15Z</time>
      </trkpt>
      <trkpt lat="44.15833" lon="5.33035">
        <ele>1575</ele>
        <time>2020-02-19T08:09:17Z</time>
      </trkpt>
      <trkpt lat="44.15825" lon="5.33023">
        <ele>1574</ele>
        <time>2020-02-19T08:09:20Z</time>
      </trkpt>
      <trkpt lat="44.15815" lon="5.3302">
        <ele>1572</ele>
        <time>2020-02-19T08:09:23Z</time>
      </trkpt>
      <trkpt lat="44.15713" lon="5.33068">
        <ele>1563</ele>
        <time>2020-02-19T08:09:48Z</time>
      </trkpt>
      <trkpt lat="44.1566" lon="5.33096">
        <ele>1558</ele>
        <time>2020-02-19T08:10:01Z</time>
      </trkpt>
      <trkpt lat="44.15647" lon="5.33109">
        <ele>1556</ele>
        <time>2020-02-19T08:10:05Z</time>
      </trkpt>
      <trkpt lat="44.15626" lon="5.33123">
        <ele>1554</ele>
        <time>2020-02-19T08:10:10Z</time>
      </trkpt>
      <trkpt lat="44.15595" lon="5.33155">
        <ele>1552</ele>
        <time>2020-02-19T08:10:19Z</time>
      </trkpt>
      <trkpt lat="44.15546" lon="5.33217">
        <ele>1543</ele>
        <time>2020-02-19T08:10:35Z</time>
      </trkpt>
      <trkpt lat="44.15534" lon="5.33247">
        <ele>1541</ele>
        <time>2020-02-19T08:10:40Z</time>
      </trkpt>
      <trkpt lat="44.15528" lon="5.33247">
        <ele>1540</ele>
        <time>2020-02-19T08:10:42Z</time>
      </trkpt>
      <trkpt lat="44.15508" lon="5.33156">
        <ele>1531</ele>
        <time>2020-02-19T08:10:58Z</time>
      </trkpt>
      <trkpt lat="44.15509" lon="5.33075">
        <ele>1526</ele>
        <time>2020-02-19T08:11:11Z</time>
      </trkpt>
      <trkpt lat="44.15506" lon="5.33028">
        <ele>1518</ele>
        <time>2020-02-19T08:11:19Z</time>
      </trkpt>
      <trkpt lat="44.15514" lon="5.33017">
        <ele>1518</ele>
        <time>2020-02-19T08:11:22Z</time>
      </trkpt>
      <trkpt lat="44.15535" lon="5.33004">
        <ele>1520</ele>
        <time>2020-02-19T08:11:27Z</time>
      </trkpt>
      <trkpt lat="44.15642" lon="5.32916">
        <ele>1514</ele>
        <time>2020-02-19T08:11:56Z</time>
      </trkpt>
      <trkpt lat="44.1567" lon="5.32897">
        <ele>1516</ele>
        <time>2020-02-19T08:12:03Z</time>
      </trkpt>
      <trkpt lat="44.15684" lon="5.3287">
        <ele>1515</ele>
        <time>2020-02-19T08:12:09Z</time>
      </trkpt>
      <trkpt lat="44.15688" lon="5.32855">
        <ele>1513</ele>
        <time>2020-02-19T08:12:12Z</time>
      </trkpt>
      <trkpt lat="44.15689" lon="5.32799">
        <ele>1506</ele>
        <time>2020-02-19T08:12:21Z</time>
      </trkpt>
      <trkpt lat="44.15694" lon="5.32785">
        <ele>1508</ele>
        <time>2020-02-19T08:12:24Z</time>
      </trkpt>
      <trkpt lat="44.157" lon="5.32747">
        <ele>1509</ele>
        <time>2020-02-19T08:12:30Z</time>
      </trkpt>
      <trkpt lat="44.15698" lon="5.32719">
        <ele>1510</ele>
        <time>2020-02-19T08:12:35Z</time>
      </trkpt>
      <trkpt lat="44.15706" lon="5.32697">
        <ele>1515</ele>
        <time>2020-02-19T08:12:39Z</time>
      </trkpt>
      <trkpt lat="44.15706" lon="5.32674">
        <ele>1517</ele>
        <time>2020-02-19T08:12:43Z</time>
      </trkpt>
      <trkpt lat="44.15717" lon="5.3265">
        <ele>1524</ele>
        <time>2020-02-19T08:12:48Z</time>
      </trkpt>
      <trkpt lat="44.15719" lon="5.32634">
        <ele>1528</ele>
        <time>2020-02-19T08:12:50Z</time>
      </trkpt>
      <trkpt lat="44.15717" lon="5.32618">
        <ele>1530</ele>
        <time>2020-02-19T08:12:53Z</time>
      </trkpt>
      <trkpt lat="44.15697" lon="5.32607">
        <ele>1527</ele>
        <time>2020-02-19T08:12:58Z</time>
      </trkpt>
      <trkpt lat="44.15672" lon="5.32611">
        <ele>1519</ele>
        <time>2020-02-19T08:13:04Z</time>
      </trkpt>
      <trkpt lat="44.15654" lon="5.32619">
        <ele>1514</ele>
        <time>2020-02-19T08:13:09Z</time>
      </trkpt>
      <trkpt lat="44.15642" lon="5.32619">
        <ele>1513</ele>
        <time>2020-02-19T08:13:11Z</time>
      </trkpt>
      <trkpt lat="44.15618" lon="5.32631">
        <ele>1508</ele>
        <time>2020-02-19T08:13:17Z</time>
      </trkpt>
      <trkpt lat="44.15572" lon="5.32614">
        <ele>1508</ele>
        <time>2020-02-19T08:13:28Z</time>
      </trkpt>
      <trkpt lat="44.15538" lon="5.32606">
        <ele>1505</ele>
        <time>2020-02-19T08:13:36Z</time>
      </trkpt>
      <trkpt lat="44.15503" lon="5.32594">
        <ele>1503</ele>
        <time>2020-02-19T08:13:45Z</time>
      </trkpt>
      <trkpt lat="44.15465" lon="5.32575">
        <ele>1501</ele>
        <time>2020-02-19T08:13:54Z</time>
      </trkpt>
      <trkpt lat="44.15453" lon="5.32565">
        <ele>1501</ele>
        <time>2020-02-19T08:13:58Z</time>
      </trkpt>
      <trkpt lat="44.15423" lon="5.32563">
        <ele>1496</ele>
        <time>2020-02-19T08:14:05Z</time>
      </trkpt>
      <trkpt lat="44.15365" lon="5.3257">
        <ele>1483</ele>
        <time>2020-02-19T08:14:18Z</time>
      </trkpt>
      <trkpt lat="44.15338" lon="5.32558">
        <ele>1479</ele>
        <time>2020-02-19T08:14:25Z</time>
      </trkpt>
      <trkpt lat="44.15331" lon="5.3255">
        <ele>1479</ele>
        <time>2020-02-19T08:14:27Z</time>
      </trkpt>
      <trkpt lat="44.15307" lon="5.32494">
        <ele>1480</ele>
        <time>2020-02-19T08:14:38Z</time>
      </trkpt>
      <trkpt lat="44.15292" lon="5.32479">
        <ele>1476</ele>
        <time>2020-02-19T08:14:42Z</time>
      </trkpt>
      <trkpt lat="44.15287" lon="5.3247">
        <ele>1476</ele>
        <time>2020-02-19T08:14:44Z</time>
      </trkpt>
      <trkpt lat="44.15277" lon="5.32444">
        <ele>1475</ele>
        <time>2020-02-19T08:14:49Z</time>
      </trkpt>
      <trkpt lat="44.15274" lon="5.32417">
        <ele>1475</ele>
        <time>2020-02-19T08:14:54Z</time>
      </trkpt>
      <trkpt lat="44.15266" lon="5.32399">
        <ele>1474</ele>
        <time>2020-02-19T08:14:57Z</time>
      </trkpt>
      <trkpt lat="44.15257" lon="5.32347">
        <ele>1472</ele>
        <time>2020-02-19T08:15:06Z</time>
      </trkpt>
      <trkpt lat="44.15251" lon="5.32272">
        <ele>1465</ele>
        <time>2020-02-19T08:15:19Z</time>
      </trkpt>
      <trkpt lat="44.1525" lon="5.32171">
        <ele>1456</ele>
        <time>2020-02-19T08:15:36Z</time>
      </trkpt>
      <trkpt lat="44.15257" lon="5.32109">
        <ele>1452</ele>
        <time>2020-02-19T08:15:46Z</time>
      </trkpt>
      <trkpt lat="44.15255" lon="5.32038">
        <ele>1443</ele>
        <time>2020-02-19T08:15:58Z</time>
      </trkpt>
      <trkpt lat="44.15251" lon="5.31993">
        <ele>1437</ele>
        <time>2020-02-19T08:16:06Z</time>
      </trkpt>
      <trkpt lat="44.15243" lon="5.31958">
        <ele>1434</ele>
        <time>2020-02-19T08:16:12Z</time>
      </trkpt>
      <trkpt lat="44.15228" lon="5.31919">
        <ele>1431</ele>
        <time>2020-02-19T08:16:19Z</time>
      </trkpt>
      <trkpt lat="44.15207" lon="5.31886">
        <ele>1430</ele>
        <time>2020-02-19T08:16:27Z</time>
      </trkpt>
      <trkpt lat="44.15201" lon="5.31851">
        <ele>1427</ele>
        <time>2020-02-19T08:16:33Z</time>
      </trkpt>
      <trkpt lat="44.15189" lon="5.31811">
        <ele>1424</ele>
        <time>2020-02-19T08:16:40Z</time>
      </trkpt>
      <trkpt lat="44.15178" lon="5.318">
        <ele>1422</ele>
        <time>2020-02-19T08:16:43Z</time>
      </trkpt>
      <trkpt lat="44.1513" lon="5.31771">
        <ele>1415</ele>
        <time>2020-02-19T08:16:55Z</time>
      </trkpt>
      <trkpt lat="44.15101" lon="5.31765">
        <ele>1411</ele>
        <time>2020-02-19T08:17:02Z</time>
      </trkpt>
      <trkpt lat="44.15053" lon="5.31702">
        <ele>1403</ele>
        <time>2020-02-19T08:17:18Z</time>
      </trkpt>
      <trkpt lat="44.15015" lon="5.31675">
        <ele>1397</ele>
        <time>2020-02-19T08:17:27Z</time>
      </trkpt>
      <trkpt lat="44.14989" lon="5.31646">
        <ele>1394</ele>
        <time>2020-02-19T08:17:35Z</time>
      </trkpt>
      <trkpt lat="44.1497" lon="5.3162">
        <ele>1393</ele>
        <time>2020-02-19T08:17:41Z</time>
      </trkpt>
      <trkpt lat="44.14924" lon="5.31592">
        <ele>1384</ele>
        <time>2020-02-19T08:17:53Z</time>
      </trkpt>
      <trkpt lat="44.14889" lon="5.31583">
        <ele>1380</ele>
        <time>2020-02-19T08:18:02Z</time>
      </trkpt>
      <trkpt lat="44.14805" lon="5.31523">
        <ele>1373</ele>
        <time>2020-02-19T08:18:24Z</time>
      </trkpt>
      <trkpt lat="44.14807" lon="5.31501">
        <ele>1371</ele>
        <time>2020-02-19T08:18:27Z</time>
      </trkpt>
      <trkpt lat="44.14776" lon="5.31493">
        <ele>1368</ele>
        <time>2020-02-19T08:18:35Z</time>
      </trkpt>
      <trkpt lat="44.14746" lon="5.31482">
        <ele>1365</ele>
        <time>2020-02-19T08:18:42Z</time>
      </trkpt>
      <trkpt lat="44.14727" lon="5.31471">
        <ele>1364</ele>
        <time>2020-02-19T08:18:47Z</time>
      </trkpt>
      <trkpt lat="44.14679" lon="5.31427">
        <ele>1356</ele>
        <time>2020-02-19T08:19:00Z</time>
      </trkpt>
      <trkpt lat="44.14643" lon="5.31399">
        <ele>1352</ele>
        <time>2020-02-19T08:19:10Z</time>
      </trkpt>
      <trkpt lat="44.14622" lon="5.31379">
        <ele>1350</ele>
        <time>2020-02-19T08:19:16Z</time>
      </trkpt>
      <trkpt lat="44.14593" lon="5.31336">
        <ele>1342</ele>
        <time>2020-02-19T08:19:26Z</time>
      </trkpt>
      <trkpt lat="44.14553" lon="5.31289">
        <ele>1337</ele>
        <time>2020-02-19T08:19:38Z</time>
      </trkpt>
      <trkpt lat="44.14521" lon="5.31259">
        <ele>1331</ele>
        <time>2020-02-19T08:19:47Z</time>
      </trkpt>
      <trkpt lat="44.14513" lon="5.31239">
        <ele>1328</ele>
        <time>2020-02-19T08:19:51Z</time>
      </trkpt>
      <trkpt lat="44.14497" lon="5.31222">
        <ele>1324</ele>
        <time>2020-02-19T08:19:55Z</time>
      </trkpt>
      <trkpt lat="44.14476" lon="5.31159">
        <ele>1318</ele>
        <time>2020-02-19T08:20:07Z</time>
      </trkpt>
      <trkpt lat="44.14462" lon="5.31134">
        <ele>1317</ele>
        <time>2020-02-19T08:20:12Z</time>
      </trkpt>
      <trkpt lat="44.14448" lon="5.31115">
        <ele>1314</ele>
        <time>2020-02-19T08:20:17Z</time>
      </trkpt>
      <trkpt lat="44.14417" lon="5.31092">
        <ele>1306</ele>
        <time>2020-02-19T08:20:25Z</time>
      </trkpt>
      <trkpt lat="44.14399" lon="5.31083">
        <ele>1304</ele>
        <time>2020-02-19T08:20:30Z</time>
      </trkpt>
      <trkpt lat="44.14359" lon="5.3108">
        <ele>1302</ele>
        <time>2020-02-19T08:20:39Z</time>
      </trkpt>
      <trkpt lat="44.14349" lon="5.31076">
        <ele>1301</ele>
        <time>2020-02-19T08:20:41Z</time>
      </trkpt>
      <trkpt lat="44.14338" lon="5.3107">
        <ele>1300</ele>
        <time>2020-02-19T08:20:44Z</time>
      </trkpt>
      <trkpt lat="44.14325" lon="5.31055">
        <ele>1299</ele>
        <time>2020-02-19T08:20:48Z</time>
      </trkpt>
      <trkpt lat="44.14316" lon="5.31042">
        <ele>1299</ele>
        <time>2020-02-19T08:20:51Z</time>
      </trkpt>
      <trkpt lat="44.14314" lon="5.31033">
        <ele>1298</ele>
        <time>2020-02-19T08:20:53Z</time>
      </trkpt>
      <trkpt lat="44.14292" lon="5.31007">
        <ele>1295</ele>
        <time>2020-02-19T08:20:59Z</time>
      </trkpt>
      <trkpt lat="44.14275" lon="5.30967">
        <ele>1290</ele>
        <time>2020-02-19T08:21:07Z</time>
      </trkpt>
      <trkpt lat="44.14265" lon="5.30951">
        <ele>1287</ele>
        <time>2020-02-19T08:21:11Z</time>
      </trkpt>
      <trkpt lat="44.1425" lon="5.30899">
        <ele>1277</ele>
        <time>2020-02-19T08:21:20Z</time>
      </trkpt>
      <trkpt lat="44.14238" lon="5.30869">
        <ele>1278</ele>
        <time>2020-02-19T08:21:26Z</time>
      </trkpt>
      <trkpt lat="44.14217" lon="5.30833">
        <ele>1276</ele>
        <time>2020-02-19T08:21:34Z</time>
      </trkpt>
      <trkpt lat="44.14209" lon="5.3081">
        <ele>1275</ele>
        <time>2020-02-19T08:21:38Z</time>
      </trkpt>
      <trkpt lat="44.14206" lon="5.30792">
        <ele>1274</ele>
        <time>2020-02-19T08:21:41Z</time>
      </trkpt>
      <trkpt lat="44.14214" lon="5.30735">
        <ele>1271</ele>
        <time>2020-02-19T08:21:51Z</time>
      </trkpt>
      <trkpt lat="44.14217" lon="5.30693">
        <ele>1268</ele>
        <time>2020-02-19T08:21:58Z</time>
      </trkpt>
      <trkpt lat="44.14214" lon="5.30621">
        <ele>1264</ele>
        <time>2020-02-19T08:22:10Z</time>
      </trkpt>
      <trkpt lat="44.14216" lon="5.30603">
        <ele>1263</ele>
        <time>2020-02-19T08:22:13Z</time>
      </trkpt>
      <trkpt lat="44.14224" lon="5.3059">
        <ele>1262</ele>
        <time>2020-02-19T08:22:16Z</time>
      </trkpt>
      <trkpt lat="44.14227" lon="5.30561">
        <ele>1261</ele>
        <time>2020-02-19T08:22:21Z</time>
      </trkpt>
      <trkpt lat="44.14225" lon="5.30537">
        <ele>1260</ele>
        <time>2020-02-19T08:22:25Z</time>
      </trkpt>
      <trkpt lat="44.1422" lon="5.3051">
        <ele>1258</ele>
        <time>2020-02-19T08:22:29Z</time>
      </trkpt>
      <trkpt lat="44.14205" lon="5.30456">
        <ele>1254</ele>
        <time>2020-02-19T08:22:39Z</time>
      </trkpt>
      <trkpt lat="44.14163" lon="5.30355">
        <ele>1237</ele>
        <time>2020-02-19T08:22:59Z</time>
      </trkpt>
      <trkpt lat="44.1411" lon="5.30257">
        <ele>1231</ele>
        <time>2020-02-19T08:23:19Z</time>
      </trkpt>
      <trkpt lat="44.1408" lon="5.30211">
        <ele>1224</ele>
        <time>2020-02-19T08:23:30Z</time>
      </trkpt>
      <trkpt lat="44.14061" lon="5.30159">
        <ele>1222</ele>
        <time>2020-02-19T08:23:39Z</time>
      </trkpt>
      <trkpt lat="44.14034" lon="5.3011">
        <ele>1220</ele>
        <time>2020-02-19T08:23:50Z</time>
      </trkpt>
      <trkpt lat="44.14016" lon="5.30085">
        <ele>1214</ele>
        <time>2020-02-19T08:23:56Z</time>
      </trkpt>
      <trkpt lat="44.14" lon="5.3007">
        <ele>1210</ele>
        <time>2020-02-19T08:24:00Z</time>
      </trkpt>
      <trkpt lat="44.13992" lon="5.30067">
        <ele>1211</ele>
        <time>2020-02-19T08:24:02Z</time>
      </trkpt>
      <trkpt lat="44.13985" lon="5.30061">
        <ele>1211</ele>
        <time>2020-02-19T08:24:04Z</time>
      </trkpt>
      <trkpt lat="44.13937" lon="5.29987">
        <ele>1204</ele>
        <time>2020-02-19T08:24:21Z</time>
      </trkpt>
      <trkpt lat="44.13924" lon="5.29974">
        <ele>1202</ele>
        <time>2020-02-19T08:24:25Z</time>
      </trkpt>
      <trkpt lat="44.1391" lon="5.29955">
        <ele>1200</ele>
        <time>2020-02-19T08:24:29Z</time>
      </trkpt>
      <trkpt lat="44.13886" lon="5.29906">
        <ele>1197</ele>
        <time>2020-02-19T08:24:39Z</time>
      </trkpt>
      <trkpt lat="44.13849" lon="5.29847">
        <ele>1190</ele>
        <time>2020-02-19T08:24:52Z</time>
      </trkpt>
      <trkpt lat="44.13837" lon="5.29813">
        <ele>1185</ele>
        <time>2020-02-19T08:24:59Z</time>
      </trkpt>
      <trkpt lat="44.13819" lon="5.29776">
        <ele>1180</ele>
        <time>2020-02-19T08:25:06Z</time>
      </trkpt>
      <trkpt lat="44.13795" lon="5.29742">
        <ele>1177</ele>
        <time>2020-02-19T08:25:14Z</time>
      </trkpt>
      <trkpt lat="44.13776" lon="5.29723">
        <ele>1175</ele>
        <time>2020-02-19T08:25:19Z</time>
      </trkpt>
      <trkpt lat="44.13728" lon="5.29687">
        <ele>1168</ele>
        <time>2020-02-19T08:25:32Z</time>
      </trkpt>
      <trkpt lat="44.1368" lon="5.29657">
        <ele>1161</ele>
        <time>2020-02-19T08:25:45Z</time>
      </trkpt>
      <trkpt lat="44.13648" lon="5.29632">
        <ele>1157</ele>
        <time>2020-02-19T08:25:53Z</time>
      </trkpt>
      <trkpt lat="44.13623" lon="5.29597">
        <ele>1154</ele>
        <time>2020-02-19T08:26:01Z</time>
      </trkpt>
      <trkpt lat="44.13594" lon="5.29564">
        <ele>1149</ele>
        <time>2020-02-19T08:26:10Z</time>
      </trkpt>
      <trkpt lat="44.13588" lon="5.29544">
        <ele>1148</ele>
        <time>2020-02-19T08:26:14Z</time>
      </trkpt>
      <trkpt lat="44.13589" lon="5.29505">
        <ele>1148</ele>
        <time>2020-02-19T08:26:20Z</time>
      </trkpt>
      <trkpt lat="44.13581" lon="5.29439">
        <ele>1146</ele>
        <time>2020-02-19T08:26:31Z</time>
      </trkpt>
      <trkpt lat="44.13577" lon="5.29376">
        <ele>1145</ele>
        <time>2020-02-19T08:26:42Z</time>
      </trkpt>
      <trkpt lat="44.13587" lon="5.2933">
        <ele>1146</ele>
        <time>2020-02-19T08:26:50Z</time>
      </trkpt>
      <trkpt lat="44.13601" lon="5.29287">
        <ele>1148</ele>
        <time>2020-02-19T08:26:58Z</time>
      </trkpt>
      <trkpt lat="44.13601" lon="5.2924">
        <ele>1146</ele>
        <time>2020-02-19T08:27:06Z</time>
      </trkpt>
      <trkpt lat="44.13604" lon="5.29207">
        <ele>1147</ele>
        <time>2020-02-19T08:27:12Z</time>
      </trkpt>
      <trkpt lat="44.13616" lon="5.291">
        <ele>1148</ele>
        <time>2020-02-19T08:27:30Z</time>
      </trkpt>
      <trkpt lat="44.13628" lon="5.29031">
        <ele>1148</ele>
        <time>2020-02-19T08:27:42Z</time>
      </trkpt>
      <trkpt lat="44.13638" lon="5.29014">
        <ele>1149</ele>
        <time>2020-02-19T08:27:45Z</time>
      </trkpt>
      <trkpt lat="44.13653" lon="5.29008">
        <ele>1152</ele>
        <time>2020-02-19T08:27:49Z</time>
      </trkpt>
      <trkpt lat="44.13677" lon="5.28959">
        <ele>1153</ele>
        <time>2020-02-19T08:27:59Z</time>
      </trkpt>
      <trkpt lat="44.13687" lon="5.28946">
        <ele>1153</ele>
        <time>2020-02-19T08:28:02Z</time>
      </trkpt>
      <trkpt lat="44.13698" lon="5.28924">
        <ele>1153</ele>
        <time>2020-02-19T08:28:07Z</time>
      </trkpt>
      <trkpt lat="44.1371" lon="5.28911">
        <ele>1154</ele>
        <time>2020-02-19T08:28:10Z</time>
      </trkpt>
      <trkpt lat="44.13717" lon="5.2888">
        <ele>1152</ele>
        <time>2020-02-19T08:28:16Z</time>
      </trkpt>
      <trkpt lat="44.1373" lon="5.28841">
        <ele>1150</ele>
        <time>2020-02-19T08:28:23Z</time>
      </trkpt>
      <trkpt lat="44.13746" lon="5.28822">
        <ele>1149</ele>
        <time>2020-02-19T08:28:28Z</time>
      </trkpt>
      <trkpt lat="44.13769" lon="5.28808">
        <ele>1148</ele>
        <time>2020-02-19T08:28:33Z</time>
      </trkpt>
      <trkpt lat="44.13778" lon="5.28807">
        <ele>1148</ele>
        <time>2020-02-19T08:28:36Z</time>
      </trkpt>
      <trkpt lat="44.1381" lon="5.28816">
        <ele>1148</ele>
        <time>2020-02-19T08:28:43Z</time>
      </trkpt>
      <trkpt lat="44.13853" lon="5.28832">
        <ele>1150</ele>
        <time>2020-02-19T08:28:54Z</time>
      </trkpt>
      <trkpt lat="44.13849" lon="5.28819">
        <ele>1149</ele>
        <time>2020-02-19T08:28:56Z</time>
      </trkpt>
      <trkpt lat="44.13835" lon="5.28796">
        <ele>1146</ele>
        <time>2020-02-19T08:29:01Z</time>
      </trkpt>
      <trkpt lat="44.13808" lon="5.28735">
        <ele>1141</ele>
        <time>2020-02-19T08:29:13Z</time>
      </trkpt>
      <trkpt lat="44.1378" lon="5.28661">
        <ele>1134</ele>
        <time>2020-02-19T08:29:27Z</time>
      </trkpt>
      <trkpt lat="44.13778" lon="5.28649">
        <ele>1133</ele>
        <time>2020-02-19T08:29:29Z</time>
      </trkpt>
      <trkpt lat="44.13779" lon="5.28603">
        <ele>1128</ele>
        <time>2020-02-19T08:29:37Z</time>
      </trkpt>
      <trkpt lat="44.13777" lon="5.28582">
        <ele>1126</ele>
        <time>2020-02-19T08:29:40Z</time>
      </trkpt>
      <trkpt lat="44.13765" lon="5.28541">
        <ele>1119</ele>
        <time>2020-02-19T08:29:48Z</time>
      </trkpt>
      <trkpt lat="44.13759" lon="5.28529">
        <ele>1117</ele>
        <time>2020-02-19T08:29:50Z</time>
      </trkpt>
      <trkpt lat="44.13738" lon="5.28451">
        <ele>1107</ele>
        <time>2020-02-19T08:30:04Z</time>
      </trkpt>
      <trkpt lat="44.13698" lon="5.28383">
        <ele>1099</ele>
        <time>2020-02-19T08:30:19Z</time>
      </trkpt>
      <trkpt lat="44.13677" lon="5.2835">
        <ele>1094</ele>
        <time>2020-02-19T08:30:26Z</time>
      </trkpt>
      <trkpt lat="44.13661" lon="5.28337">
        <ele>1090</ele>
        <time>2020-02-19T08:30:31Z</time>
      </trkpt>
      <trkpt lat="44.13592" lon="5.2831">
        <ele>1081</ele>
        <time>2020-02-19T08:30:47Z</time>
      </trkpt>
      <trkpt lat="44.13565" lon="5.28292">
        <ele>1078</ele>
        <time>2020-02-19T08:30:54Z</time>
      </trkpt>
      <trkpt lat="44.13548" lon="5.28293">
        <ele>1076</ele>
        <time>2020-02-19T08:30:58Z</time>
      </trkpt>
      <trkpt lat="44.13539" lon="5.28284">
        <ele>1075</ele>
        <time>2020-02-19T08:31:01Z</time>
      </trkpt>
      <trkpt lat="44.13521" lon="5.28275">
        <ele>1072</ele>
        <time>2020-02-19T08:31:05Z</time>
      </trkpt>
      <trkpt lat="44.13505" lon="5.28256">
        <ele>1068</ele>
        <time>2020-02-19T08:31:10Z</time>
      </trkpt>
      <trkpt lat="44.13488" lon="5.28221">
        <ele>1066</ele>
        <time>2020-02-19T08:31:17Z</time>
      </trkpt>
      <trkpt lat="44.13468" lon="5.28202">
        <ele>1063</ele>
        <time>2020-02-19T08:31:23Z</time>
      </trkpt>
      <trkpt lat="44.13462" lon="5.28192">
        <ele>1062</ele>
        <time>2020-02-19T08:31:25Z</time>
      </trkpt>
      <trkpt lat="44.1344" lon="5.28125">
        <ele>1057</ele>
        <time>2020-02-19T08:31:38Z</time>
      </trkpt>
      <trkpt lat="44.13374" lon="5.27995">
        <ele>1046</ele>
        <time>2020-02-19T08:32:04Z</time>
      </trkpt>
      <trkpt lat="44.13343" lon="5.27911">
        <ele>1044</ele>
        <time>2020-02-19T08:32:20Z</time>
      </trkpt>
      <trkpt lat="44.13343" lon="5.27876">
        <ele>1044</ele>
        <time>2020-02-19T08:32:26Z</time>
      </trkpt>
      <trkpt lat="44.13327" lon="5.2781">
        <ele>1038</ele>
        <time>2020-02-19T08:32:38Z</time>
      </trkpt>
      <trkpt lat="44.13318" lon="5.27737">
        <ele>1031</ele>
        <time>2020-02-19T08:32:50Z</time>
      </trkpt>
      <trkpt lat="44.13314" lon="5.27669">
        <ele>1028</ele>
        <time>2020-02-19T08:33:02Z</time>
      </trkpt>
      <trkpt lat="44.13309" lon="5.27653">
        <ele>1026</ele>
        <time>2020-02-19T08:33:04Z</time>
      </trkpt>
      <trkpt lat="44.13279" lon="5.27621">
        <ele>1018</ele>
        <time>2020-02-19T08:33:13Z</time>
      </trkpt>
      <trkpt lat="44.13273" lon="5.27532">
        <ele>1013</ele>
        <time>2020-02-19T08:33:28Z</time>
      </trkpt>
      <trkpt lat="44.13273" lon="5.27487">
        <ele>1010</ele>
        <time>2020-02-19T08:33:36Z</time>
      </trkpt>
      <trkpt lat="44.13276" lon="5.27471">
        <ele>1009</ele>
        <time>2020-02-19T08:33:39Z</time>
      </trkpt>
      <trkpt lat="44.13277" lon="5.27428">
        <ele>1006</ele>
        <time>2020-02-19T08:33:46Z</time>
      </trkpt>
      <trkpt lat="44.13275" lon="5.27372">
        <ele>1003</ele>
        <time>2020-02-19T08:33:55Z</time>
      </trkpt>
      <trkpt lat="44.13248" lon="5.27236">
        <ele>989</ele>
        <time>2020-02-19T08:34:19Z</time>
      </trkpt>
      <trkpt lat="44.13238" lon="5.27202">
        <ele>985</ele>
        <time>2020-02-19T08:34:25Z</time>
      </trkpt>
      <trkpt lat="44.13236" lon="5.2715">
        <ele>980</ele>
        <time>2020-02-19T08:34:34Z</time>
      </trkpt>
      <trkpt lat="44.1324" lon="5.27134">
        <ele>978</ele>
        <time>2020-02-19T08:34:37Z</time>
      </trkpt>
      <trkpt lat="44.1326" lon="5.27105">
        <ele>977</ele>
        <time>2020-02-19T08:34:43Z</time>
      </trkpt>
      <trkpt lat="44.13259" lon="5.27066">
        <ele>972</ele>
        <time>2020-02-19T08:34:50Z</time>
      </trkpt>
      <trkpt lat="44.13241" lon="5.27043">
        <ele>967</ele>
        <time>2020-02-19T08:34:56Z</time>
      </trkpt>
      <trkpt lat="44.13235" lon="5.27028">
        <ele>965</ele>
        <time>2020-02-19T08:34:58Z</time>
      </trkpt>
      <trkpt lat="44.13235" lon="5.27014">
        <ele>964</ele>
        <time>2020-02-19T08:35:01Z</time>
      </trkpt>
      <trkpt lat="44.13224" lon="5.26994">
        <ele>962</ele>
        <time>2020-02-19T08:35:05Z</time>
      </trkpt>
      <trkpt lat="44.13221" lon="5.26993">
        <ele>961</ele>
        <time>2020-02-19T08:35:06Z</time>
      </trkpt>
      <trkpt lat="44.13213" lon="5.26996">
        <ele>961</ele>
        <time>2020-02-19T08:35:08Z</time>
      </trkpt>
      <trkpt lat="44.13199" lon="5.26986">
        <ele>959</ele>
        <time>2020-02-19T08:35:11Z</time>
      </trkpt>
      <trkpt lat="44.13197" lon="5.26975">
        <ele>959</ele>
        <time>2020-02-19T08:35:13Z</time>
      </trkpt>
      <trkpt lat="44.13202" lon="5.26932">
        <ele>958</ele>
        <time>2020-02-19T08:35:21Z</time>
      </trkpt>
      <trkpt lat="44.13194" lon="5.26871">
        <ele>954</ele>
        <time>2020-02-19T08:35:31Z</time>
      </trkpt>
      <trkpt lat="44.13179" lon="5.26819">
        <ele>948</ele>
        <time>2020-02-19T08:35:40Z</time>
      </trkpt>
      <trkpt lat="44.13169" lon="5.26766">
        <ele>943</ele>
        <time>2020-02-19T08:35:50Z</time>
      </trkpt>
      <trkpt lat="44.13169" lon="5.26714">
        <ele>938</ele>
        <time>2020-02-19T08:35:58Z</time>
      </trkpt>
      <trkpt lat="44.13172" lon="5.26693">
        <ele>937</ele>
        <time>2020-02-19T08:36:02Z</time>
      </trkpt>
      <trkpt lat="44.13166" lon="5.26629">
        <ele>930</ele>
        <time>2020-02-19T08:36:13Z</time>
      </trkpt>
      <trkpt lat="44.13148" lon="5.26575">
        <ele>923</ele>
        <time>2020-02-19T08:36:23Z</time>
      </trkpt>
      <trkpt lat="44.13179" lon="5.26535">
        <ele>923</ele>
        <time>2020-02-19T08:36:32Z</time>
      </trkpt>
      <trkpt lat="44.13203" lon="5.26494">
        <ele>925</ele>
        <time>2020-02-19T08:36:41Z</time>
      </trkpt>
      <trkpt lat="44.13237" lon="5.26351">
        <ele>915</ele>
        <time>2020-02-19T08:37:07Z</time>
      </trkpt>
      <trkpt lat="44.13253" lon="5.26314">
        <ele>912</ele>
        <time>2020-02-19T08:37:14Z</time>
      </trkpt>
      <trkpt lat="44.13274" lon="5.26286">
        <ele>910</ele>
        <time>2020-02-19T08:37:21Z</time>
      </trkpt>
      <trkpt lat="44.133" lon="5.26264">
        <ele>908</ele>
        <time>2020-02-19T08:37:28Z</time>
      </trkpt>
      <trkpt lat="44.13349" lon="5.26234">
        <ele>907</ele>
        <time>2020-02-19T08:37:40Z</time>
      </trkpt>
      <trkpt lat="44.13353" lon="5.26219">
        <ele>906</ele>
        <time>2020-02-19T08:37:43Z</time>
      </trkpt>
      <trkpt lat="44.13358" lon="5.26102">
        <ele>894</ele>
        <time>2020-02-19T08:38:03Z</time>
      </trkpt>
      <trkpt lat="44.13352" lon="5.26013">
        <ele>890</ele>
        <time>2020-02-19T08:38:18Z</time>
      </trkpt>
      <trkpt lat="44.13337" lon="5.26008">
        <ele>888</ele>
        <time>2020-02-19T08:38:21Z</time>
      </trkpt>
      <trkpt lat="44.13315" lon="5.25988">
        <ele>884</ele>
        <time>2020-02-19T08:38:27Z</time>
      </trkpt>
      <trkpt lat="44.13296" lon="5.25982">
        <ele>881</ele>
        <time>2020-02-19T08:38:32Z</time>
      </trkpt>
      <trkpt lat="44.13269" lon="5.25983">
        <ele>877</ele>
        <time>2020-02-19T08:38:38Z</time>
      </trkpt>
      <trkpt lat="44.13233" lon="5.2596">
        <ele>872</ele>
        <time>2020-02-19T08:38:47Z</time>
      </trkpt>
      <trkpt lat="44.1322" lon="5.25946">
        <ele>871</ele>
        <time>2020-02-19T08:38:51Z</time>
      </trkpt>
      <trkpt lat="44.13208" lon="5.25938">
        <ele>869</ele>
        <time>2020-02-19T08:38:54Z</time>
      </trkpt>
      <trkpt lat="44.13192" lon="5.25937">
        <ele>867</ele>
        <time>2020-02-19T08:38:58Z</time>
      </trkpt>
      <trkpt lat="44.13129" lon="5.25961">
        <ele>861</ele>
        <time>2020-02-19T08:39:13Z</time>
      </trkpt>
      <trkpt lat="44.13109" lon="5.25959">
        <ele>860</ele>
        <time>2020-02-19T08:39:18Z</time>
      </trkpt>
      <trkpt lat="44.1308" lon="5.25923">
        <ele>856</ele>
        <time>2020-02-19T08:39:27Z</time>
      </trkpt>
      <trkpt lat="44.13065" lon="5.25893">
        <ele>854</ele>
        <time>2020-02-19T08:39:33Z</time>
      </trkpt>
      <trkpt lat="44.13055" lon="5.25865">
        <ele>852</ele>
        <time>2020-02-19T08:39:38Z</time>
      </trkpt>
      <trkpt lat="44.13021" lon="5.25812">
        <ele>845</ele>
        <time>2020-02-19T08:39:50Z</time>
      </trkpt>
      <trkpt lat="44.13005" lon="5.2576">
        <ele>837</ele>
        <time>2020-02-19T08:40:00Z</time>
      </trkpt>
      <trkpt lat="44.1296" lon="5.25651">
        <ele>827</ele>
        <time>2020-02-19T08:40:21Z</time>
      </trkpt>
      <trkpt lat="44.12954" lon="5.2563">
        <ele>825</ele>
        <time>2020-02-19T08:40:25Z</time>
      </trkpt>
      <trkpt lat="44.12944" lon="5.25606">
        <ele>822</ele>
        <time>2020-02-19T08:40:29Z</time>
      </trkpt>
      <trkpt lat="44.12932" lon="5.25591">
        <ele>820</ele>
        <time>2020-02-19T08:40:33Z</time>
      </trkpt>
      <trkpt lat="44.12936" lon="5.25567">
        <ele>818</ele>
        <time>2020-02-19T08:40:37Z</time>
      </trkpt>
      <trkpt lat="44.1293" lon="5.25538">
        <ele>816</ele>
        <time>2020-02-19T08:40:42Z</time>
      </trkpt>
      <trkpt lat="44.1292" lon="5.25514">
        <ele>813</ele>
        <time>2020-02-19T08:40:47Z</time>
      </trkpt>
      <trkpt lat="44.12914" lon="5.2549">
        <ele>811</ele>
        <time>2020-02-19T08:40:51Z</time>
      </trkpt>
      <trkpt lat="44.12911" lon="5.25456">
        <ele>808</ele>
        <time>2020-02-19T08:40:57Z</time>
      </trkpt>
      <trkpt lat="44.12901" lon="5.25424">
        <ele>805</ele>
        <time>2020-02-19T08:41:03Z</time>
      </trkpt>
      <trkpt lat="44.12898" lon="5.25404">
        <ele>803</ele>
        <time>2020-02-19T08:41:06Z</time>
      </trkpt>
      <trkpt lat="44.12887" lon="5.25378">
        <ele>801</ele>
        <time>2020-02-19T08:41:11Z</time>
      </trkpt>
      <trkpt lat="44.12878" lon="5.25369">
        <ele>801</ele>
        <time>2020-02-19T08:41:14Z</time>
      </trkpt>
      <trkpt lat="44.1288" lon="5.25359">
        <ele>800</ele>
        <time>2020-02-19T08:41:16Z</time>
      </trkpt>
      <trkpt lat="44.12865" lon="5.25338">
        <ele>798</ele>
        <time>2020-02-19T08:41:21Z</time>
      </trkpt>
      <trkpt lat="44.12857" lon="5.25321">
        <ele>796</ele>
        <time>2020-02-19T08:41:24Z</time>
      </trkpt>
      <trkpt lat="44.12839" lon="5.253">
        <ele>793</ele>
        <time>2020-02-19T08:41:29Z</time>
      </trkpt>
      <trkpt lat="44.12843" lon="5.25293">
        <ele>792</ele>
        <time>2020-02-19T08:41:31Z</time>
      </trkpt>
      <trkpt lat="44.12837" lon="5.25261">
        <ele>789</ele>
        <time>2020-02-19T08:41:37Z</time>
      </trkpt>
      <trkpt lat="44.1282" lon="5.25226">
        <ele>785</ele>
        <time>2020-02-19T08:41:44Z</time>
      </trkpt>
      <trkpt lat="44.12804" lon="5.2521">
        <ele>784</ele>
        <time>2020-02-19T08:41:48Z</time>
      </trkpt>
      <trkpt lat="44.12792" lon="5.25189">
        <ele>782</ele>
        <time>2020-02-19T08:41:53Z</time>
      </trkpt>
      <trkpt lat="44.12788" lon="5.25176">
        <ele>781</ele>
        <time>2020-02-19T08:41:55Z</time>
      </trkpt>
      <trkpt lat="44.1278" lon="5.25169">
        <ele>780</ele>
        <time>2020-02-19T08:41:57Z</time>
      </trkpt>
      <trkpt lat="44.12784" lon="5.25154">
        <ele>779</ele>
        <time>2020-02-19T08:42:00Z</time>
      </trkpt>
      <trkpt lat="44.1277" lon="5.2513">
        <ele>776</ele>
        <time>2020-02-19T08:42:05Z</time>
      </trkpt>
      <trkpt lat="44.12759" lon="5.2512">
        <ele>774</ele>
        <time>2020-02-19T08:42:08Z</time>
      </trkpt>
      <trkpt lat="44.12761" lon="5.25085">
        <ele>770</ele>
        <time>2020-02-19T08:42:14Z</time>
      </trkpt>
      <trkpt lat="44.12748" lon="5.25048">
        <ele>767</ele>
        <time>2020-02-19T08:42:21Z</time>
      </trkpt>
      <trkpt lat="44.12736" lon="5.25024">
        <ele>765</ele>
        <time>2020-02-19T08:42:26Z</time>
      </trkpt>
      <trkpt lat="44.12731" lon="5.24999">
        <ele>763</ele>
        <time>2020-02-19T08:42:30Z</time>
      </trkpt>
      <trkpt lat="44.12716" lon="5.24978">
        <ele>760</ele>
        <time>2020-02-19T08:42:35Z</time>
      </trkpt>
      <trkpt lat="44.12699" lon="5.24962">
        <ele>757</ele>
        <time>2020-02-19T08:42:40Z</time>
      </trkpt>
      <trkpt lat="44.12674" lon="5.2497">
        <ele>755</ele>
        <time>2020-02-19T08:42:46Z</time>
      </trkpt>
      <trkpt lat="44.12661" lon="5.24944">
        <ele>752</ele>
        <time>2020-02-19T08:42:51Z</time>
      </trkpt>
      <trkpt lat="44.1266" lon="5.24929">
        <ele>751</ele>
        <time>2020-02-19T08:42:54Z</time>
      </trkpt>
      <trkpt lat="44.12654" lon="5.2492">
        <ele>750</ele>
        <time>2020-02-19T08:42:56Z</time>
      </trkpt>
      <trkpt lat="44.12628" lon="5.24861">
        <ele>745</ele>
        <time>2020-02-19T08:43:08Z</time>
      </trkpt>
      <trkpt lat="44.12617" lon="5.24843">
        <ele>742</ele>
        <time>2020-02-19T08:43:11Z</time>
      </trkpt>
      <trkpt lat="44.12602" lon="5.24839">
        <ele>741</ele>
        <time>2020-02-19T08:43:15Z</time>
      </trkpt>
      <trkpt lat="44.12593" lon="5.24812">
        <ele>738</ele>
        <time>2020-02-19T08:43:20Z</time>
      </trkpt>
      <trkpt lat="44.12592" lon="5.24801">
        <ele>737</ele>
        <time>2020-02-19T08:43:22Z</time>
      </trkpt>
      <trkpt lat="44.12582" lon="5.24778">
        <ele>735</ele>
        <time>2020-02-19T08:43:26Z</time>
      </trkpt>
      <trkpt lat="44.12565" lon="5.24759">
        <ele>732</ele>
        <time>2020-02-19T08:43:31Z</time>
      </trkpt>
      <trkpt lat="44.12554" lon="5.24737">
        <ele>730</ele>
        <time>2020-02-19T08:43:36Z</time>
      </trkpt>
      <trkpt lat="44.12555" lon="5.24719">
        <ele>728</ele>
        <time>2020-02-19T08:43:39Z</time>
      </trkpt>
      <trkpt lat="44.12558" lon="5.24715">
        <ele>728</ele>
        <time>2020-02-19T08:43:40Z</time>
      </trkpt>
      <trkpt lat="44.12539" lon="5.24694">
        <ele>725</ele>
        <time>2020-02-19T08:43:46Z</time>
      </trkpt>
      <trkpt lat="44.12519" lon="5.24677">
        <ele>722</ele>
        <time>2020-02-19T08:43:51Z</time>
      </trkpt>
      <trkpt lat="44.12489" lon="5.24658">
        <ele>717</ele>
        <time>2020-02-19T08:43:59Z</time>
      </trkpt>
      <trkpt lat="44.12482" lon="5.24643">
        <ele>715</ele>
        <time>2020-02-19T08:44:02Z</time>
      </trkpt>
      <trkpt lat="44.12473" lon="5.24639">
        <ele>714</ele>
        <time>2020-02-19T08:44:04Z</time>
      </trkpt>
      <trkpt lat="44.12455" lon="5.24621">
        <ele>711</ele>
        <time>2020-02-19T08:44:09Z</time>
      </trkpt>
      <trkpt lat="44.12416" lon="5.24601">
        <ele>706</ele>
        <time>2020-02-19T08:44:19Z</time>
      </trkpt>
      <trkpt lat="44.12408" lon="5.24591">
        <ele>704</ele>
        <time>2020-02-19T08:44:21Z</time>
      </trkpt>
      <trkpt lat="44.12402" lon="5.24575">
        <ele>702</ele>
        <time>2020-02-19T08:44:24Z</time>
      </trkpt>
      <trkpt lat="44.12388" lon="5.24561">
        <ele>699</ele>
        <time>2020-02-19T08:44:28Z</time>
      </trkpt>
      <trkpt lat="44.12375" lon="5.24554">
        <ele>697</ele>
        <time>2020-02-19T08:44:32Z</time>
      </trkpt>
      <trkpt lat="44.12358" lon="5.24523">
        <ele>691</ele>
        <time>2020-02-19T08:44:38Z</time>
      </trkpt>
      <trkpt lat="44.12347" lon="5.24513">
        <ele>688</ele>
        <time>2020-02-19T08:44:41Z</time>
      </trkpt>
      <trkpt lat="44.12343" lon="5.24506">
        <ele>687</ele>
        <time>2020-02-19T08:44:43Z</time>
      </trkpt>
      <trkpt lat="44.12369" lon="5.24471">
        <ele>688</ele>
        <time>2020-02-19T08:44:51Z</time>
      </trkpt>
      <trkpt lat="44.12379" lon="5.2445">
        <ele>687</ele>
        <time>2020-02-19T08:44:55Z</time>
      </trkpt>
      <trkpt lat="44.12367" lon="5.24424">
        <ele>684</ele>
        <time>2020-02-19T08:45:01Z</time>
      </trkpt>
      <trkpt lat="44.12354" lon="5.24381">
        <ele>678</ele>
        <time>2020-02-19T08:45:08Z</time>
      </trkpt>
      <trkpt lat="44.12349" lon="5.24374">
        <ele>676</ele>
        <time>2020-02-19T08:45:10Z</time>
      </trkpt>
      <trkpt lat="44.12348" lon="5.24361">
        <ele>675</ele>
        <time>2020-02-19T08:45:12Z</time>
      </trkpt>
      <trkpt lat="44.12338" lon="5.24338">
        <ele>671</ele>
        <time>2020-02-19T08:45:17Z</time>
      </trkpt>
      <trkpt lat="44.12337" lon="5.24324">
        <ele>669</ele>
        <time>2020-02-19T08:45:19Z</time>
      </trkpt>
      <trkpt lat="44.12339" lon="5.24311">
        <ele>668</ele>
        <time>2020-02-19T08:45:21Z</time>
      </trkpt>
      <trkpt lat="44.12338" lon="5.24302">
        <ele>667</ele>
        <time>2020-02-19T08:45:23Z</time>
      </trkpt>
      <trkpt lat="44.12333" lon="5.24293">
        <ele>665</ele>
        <time>2020-02-19T08:45:25Z</time>
      </trkpt>
      <trkpt lat="44.12335" lon="5.24285">
        <ele>664</ele>
        <time>2020-02-19T08:45:26Z</time>
      </trkpt>
      <trkpt lat="44.12327" lon="5.24274">
        <ele>662</ele>
        <time>2020-02-19T08:45:29Z</time>
      </trkpt>
      <trkpt lat="44.12321" lon="5.24272">
        <ele>661</ele>
        <time>2020-02-19T08:45:30Z</time>
      </trkpt>
      <trkpt lat="44.12315" lon="5.24258">
        <ele>659</ele>
        <time>2020-02-19T08:45:33Z</time>
      </trkpt>
      <trkpt lat="44.12298" lon="5.24248">
        <ele>656</ele>
        <time>2020-02-19T08:45:37Z</time>
      </trkpt>
      <trkpt lat="44.12294" lon="5.24242">
        <ele>654</ele>
        <time>2020-02-19T08:45:39Z</time>
      </trkpt>
      <trkpt lat="44.1229" lon="5.24242">
        <ele>654</ele>
        <time>2020-02-19T08:45:40Z</time>
      </trkpt>
      <trkpt lat="44.12279" lon="5.24223">
        <ele>650</ele>
        <time>2020-02-19T08:45:44Z</time>
      </trkpt>
      <trkpt lat="44.1227" lon="5.24222">
        <ele>649</ele>
        <time>2020-02-19T08:45:46Z</time>
      </trkpt>
      <trkpt lat="44.12262" lon="5.24193">
        <ele>645</ele>
        <time>2020-02-19T08:45:51Z</time>
      </trkpt>
      <trkpt lat="44.12251" lon="5.24178">
        <ele>642</ele>
        <time>2020-02-19T08:45:55Z</time>
      </trkpt>
      <trkpt lat="44.12237" lon="5.2417">
        <ele>640</ele>
        <time>2020-02-19T08:45:58Z</time>
      </trkpt>
      <trkpt lat="44.12213" lon="5.24101">
        <ele>630</ele>
        <time>2020-02-19T08:46:11Z</time>
      </trkpt>
      <trkpt lat="44.12208" lon="5.24096">
        <ele>629</ele>
        <time>2020-02-19T08:46:13Z</time>
      </trkpt>
      <trkpt lat="44.12188" lon="5.24088">
        <ele>627</ele>
        <time>2020-02-19T08:46:17Z</time>
      </trkpt>
      <trkpt lat="44.12184" lon="5.24079">
        <ele>625</ele>
        <time>2020-02-19T08:46:19Z</time>
      </trkpt>
      <trkpt lat="44.12166" lon="5.24069">
        <ele>623</ele>
        <time>2020-02-19T08:46:24Z</time>
      </trkpt>
      <trkpt lat="44.12159" lon="5.24067">
        <ele>622</ele>
        <time>2020-02-19T08:46:25Z</time>
      </trkpt>
      <trkpt lat="44.12146" lon="5.24079">
        <ele>623</ele>
        <time>2020-02-19T08:46:29Z</time>
      </trkpt>
      <trkpt lat="44.12137" lon="5.24077">
        <ele>622</ele>
        <time>2020-02-19T08:46:31Z</time>
      </trkpt>
      <trkpt lat="44.12132" lon="5.24063">
        <ele>620</ele>
        <time>2020-02-19T08:46:34Z</time>
      </trkpt>
      <trkpt lat="44.12127" lon="5.24056">
        <ele>619</ele>
        <time>2020-02-19T08:46:35Z</time>
      </trkpt>
      <trkpt lat="44.12127" lon="5.24045">
        <ele>618</ele>
        <time>2020-02-19T08:46:37Z</time>
      </trkpt>
      <trkpt lat="44.12122" lon="5.24042">
        <ele>617</ele>
        <time>2020-02-19T08:46:39Z</time>
      </trkpt>
      <trkpt lat="44.12104" lon="5.24018">
        <ele>613</ele>
        <time>2020-02-19T08:46:44Z</time>
      </trkpt>
      <trkpt lat="44.12085" lon="5.2398">
        <ele>607</ele>
        <time>2020-02-19T08:46:52Z</time>
      </trkpt>
      <trkpt lat="44.1209" lon="5.23966">
        <ele>605</ele>
        <time>2020-02-19T08:46:55Z</time>
      </trkpt>
      <trkpt lat="44.12094" lon="5.23947">
        <ele>603</ele>
        <time>2020-02-19T08:46:58Z</time>
      </trkpt>
      <trkpt lat="44.12093" lon="5.23942">
        <ele>602</ele>
        <time>2020-02-19T08:46:59Z</time>
      </trkpt>
      <trkpt lat="44.12085" lon="5.23935">
        <ele>601</ele>
        <time>2020-02-19T08:47:01Z</time>
      </trkpt>
      <trkpt lat="44.12077" lon="5.23932">
        <ele>600</ele>
        <time>2020-02-19T08:47:03Z</time>
      </trkpt>
      <trkpt lat="44.12058" lon="5.23932">
        <ele>598</ele>
        <time>2020-02-19T08:47:07Z</time>
      </trkpt>
      <trkpt lat="44.12043" lon="5.23946">
        <ele>599</ele>
        <time>2020-02-19T08:47:12Z</time>
      </trkpt>
      <trkpt lat="44.12044" lon="5.23985">
        <ele>603</ele>
        <time>2020-02-19T08:47:18Z</time>
      </trkpt>
      <trkpt lat="44.12047" lon="5.23985">
        <ele>604</ele>
        <time>2020-02-19T08:47:19Z</time>
      </trkpt>
      <trkpt lat="44.12041" lon="5.24066">
        <ele>614</ele>
        <time>2020-02-19T08:47:33Z</time>
      </trkpt>
      <trkpt lat="44.12033" lon="5.24085">
        <ele>615</ele>
        <time>2020-02-19T08:47:36Z</time>
      </trkpt>
      <trkpt lat="44.12017" lon="5.24104">
        <ele>615</ele>
        <time>2020-02-19T08:47:41Z</time>
      </trkpt>
      <trkpt lat="44.11996" lon="5.24136">
        <ele>615</ele>
        <time>2020-02-19T08:47:48Z</time>
      </trkpt>
      <trkpt lat="44.11994" lon="5.2415">
        <ele>616</ele>
        <time>2020-02-19T08:47:51Z</time>
      </trkpt>
      <trkpt lat="44.11966" lon="5.24148">
        <ele>613</ele>
        <time>2020-02-19T08:47:57Z</time>
      </trkpt>
      <trkpt lat="44.1196" lon="5.24153">
        <ele>613</ele>
        <time>2020-02-19T08:47:59Z</time>
      </trkpt>
      <trkpt lat="44.11935" lon="5.24161">
        <ele>612</ele>
        <time>2020-02-19T08:48:05Z</time>
      </trkpt>
      <trkpt lat="44.11931" lon="5.24167">
        <ele>612</ele>
        <time>2020-02-19T08:48:06Z</time>
      </trkpt>
      <trkpt lat="44.1193" lon="5.24181">
        <ele>613</ele>
        <time>2020-02-19T08:48:09Z</time>
      </trkpt>
      <trkpt lat="44.1192" lon="5.24182">
        <ele>613</ele>
        <time>2020-02-19T08:48:11Z</time>
      </trkpt>
      <trkpt lat="44.11908" lon="5.24174">
        <ele>611</ele>
        <time>2020-02-19T08:48:14Z</time>
      </trkpt>
      <trkpt lat="44.11903" lon="5.24175">
        <ele>611</ele>
        <time>2020-02-19T08:48:15Z</time>
      </trkpt>
      <trkpt lat="44.11899" lon="5.24165">
        <ele>609</ele>
        <time>2020-02-19T08:48:17Z</time>
      </trkpt>
      <trkpt lat="44.11897" lon="5.24143">
        <ele>607</ele>
        <time>2020-02-19T08:48:21Z</time>
      </trkpt>
      <trkpt lat="44.11894" lon="5.24138">
        <ele>606</ele>
        <time>2020-02-19T08:48:22Z</time>
      </trkpt>
      <trkpt lat="44.119" lon="5.24123">
        <ele>605</ele>
        <time>2020-02-19T08:48:25Z</time>
      </trkpt>
      <trkpt lat="44.1191" lon="5.24113">
        <ele>605</ele>
        <time>2020-02-19T08:48:28Z</time>
      </trkpt>
      <trkpt lat="44.11912" lon="5.24102">
        <ele>604</ele>
        <time>2020-02-19T08:48:30Z</time>
      </trkpt>
      <trkpt lat="44.11911" lon="5.2408">
        <ele>602</ele>
        <time>2020-02-19T08:48:33Z</time>
      </trkpt>
      <trkpt lat="44.11907" lon="5.24069">
        <ele>600</ele>
        <time>2020-02-19T08:48:36Z</time>
      </trkpt>
      <trkpt lat="44.119" lon="5.24075">
        <ele>600</ele>
        <time>2020-02-19T08:48:37Z</time>
      </trkpt>
      <trkpt lat="44.1189" lon="5.24072">
        <ele>598</ele>
        <time>2020-02-19T08:48:40Z</time>
      </trkpt>
      <trkpt lat="44.11885" lon="5.24073">
        <ele>597</ele>
        <time>2020-02-19T08:48:41Z</time>
      </trkpt>
      <trkpt lat="44.11882" lon="5.2407">
        <ele>596</ele>
        <time>2020-02-19T08:48:42Z</time>
      </trkpt>
      <trkpt lat="44.11885" lon="5.2406">
        <ele>595</ele>
        <time>2020-02-19T08:48:44Z</time>
      </trkpt>
      <trkpt lat="44.11885" lon="5.24045">
        <ele>593</ele>
        <time>2020-02-19T08:48:46Z</time>
      </trkpt>
      <trkpt lat="44.11874" lon="5.24042">
        <ele>591</ele>
        <time>2020-02-19T08:48:49Z</time>
      </trkpt>
      <trkpt lat="44.11869" lon="5.24036">
        <ele>589</ele>
        <time>2020-02-19T08:48:50Z</time>
      </trkpt>
      <trkpt lat="44.11871" lon="5.24024">
        <ele>588</ele>
        <time>2020-02-19T08:48:52Z</time>
      </trkpt>
      <trkpt lat="44.11865" lon="5.24003">
        <ele>584</ele>
        <time>2020-02-19T08:48:56Z</time>
      </trkpt>
      <trkpt lat="44.11858" lon="5.24001">
        <ele>582</ele>
        <time>2020-02-19T08:48:58Z</time>
      </trkpt>
      <trkpt lat="44.11857" lon="5.23998">
        <ele>581</ele>
        <time>2020-02-19T08:48:58Z</time>
      </trkpt>
      <trkpt lat="44.11858" lon="5.23989">
        <ele>580</ele>
        <time>2020-02-19T08:49:00Z</time>
      </trkpt>
      <trkpt lat="44.1185" lon="5.23957">
        <ele>574</ele>
        <time>2020-02-19T08:49:06Z</time>
      </trkpt>
      <trkpt lat="44.11828" lon="5.23947">
        <ele>568</ele>
        <time>2020-02-19T08:49:11Z</time>
      </trkpt>
      <trkpt lat="44.11794" lon="5.23967">
        <ele>564</ele>
        <time>2020-02-19T08:49:20Z</time>
      </trkpt>
      <trkpt lat="44.11782" lon="5.23987">
        <ele>565</ele>
        <time>2020-02-19T08:49:24Z</time>
      </trkpt>
      <trkpt lat="44.11776" lon="5.23979">
        <ele>563</ele>
        <time>2020-02-19T08:49:26Z</time>
      </trkpt>
      <trkpt lat="44.11778" lon="5.23968">
        <ele>561</ele>
        <time>2020-02-19T08:49:28Z</time>
      </trkpt>
      <trkpt lat="44.1176" lon="5.23963">
        <ele>557</ele>
        <time>2020-02-19T08:49:32Z</time>
      </trkpt>
      <trkpt lat="44.11749" lon="5.23969">
        <ele>556</ele>
        <time>2020-02-19T08:49:35Z</time>
      </trkpt>
      <trkpt lat="44.11739" lon="5.23968">
        <ele>554</ele>
        <time>2020-02-19T08:49:37Z</time>
      </trkpt>
      <trkpt lat="44.11735" lon="5.23954">
        <ele>551</ele>
        <time>2020-02-19T08:49:40Z</time>
      </trkpt>
      <trkpt lat="44.11741" lon="5.23948">
        <ele>551</ele>
        <time>2020-02-19T08:49:42Z</time>
      </trkpt>
      <trkpt lat="44.11748" lon="5.23927">
        <ele>548</ele>
        <time>2020-02-19T08:49:45Z</time>
      </trkpt>
      <trkpt lat="44.11765" lon="5.23901">
        <ele>548</ele>
        <time>2020-02-19T08:49:51Z</time>
      </trkpt>
      <trkpt lat="44.11823" lon="5.23825">
        <ele>550</ele>
        <time>2020-02-19T08:50:10Z</time>
      </trkpt>
      <trkpt lat="44.11837" lon="5.238">
        <ele>549</ele>
        <time>2020-02-19T08:50:15Z</time>
      </trkpt>
      <trkpt lat="44.11845" lon="5.23772">
        <ele>548</ele>
        <time>2020-02-19T08:50:20Z</time>
      </trkpt>
      <trkpt lat="44.11863" lon="5.2375">
        <ele>549</ele>
        <time>2020-02-19T08:50:26Z</time>
      </trkpt>
      <trkpt lat="44.11884" lon="5.23718">
        <ele>551</ele>
        <time>2020-02-19T08:50:33Z</time>
      </trkpt>
      <trkpt lat="44.11939" lon="5.2362">
        <ele>548</ele>
        <time>2020-02-19T08:50:54Z</time>
      </trkpt>
      <trkpt lat="44.11972" lon="5.23572">
        <ele>547</ele>
        <time>2020-02-19T08:51:05Z</time>
      </trkpt>
      <trkpt lat="44.1205" lon="5.23462">
        <ele>540</ele>
        <time>2020-02-19T08:51:31Z</time>
      </trkpt>
      <trkpt lat="44.12064" lon="5.23445">
        <ele>539</ele>
        <time>2020-02-19T08:51:35Z</time>
      </trkpt>
      <trkpt lat="44.12103" lon="5.23411">
        <ele>536</ele>
        <time>2020-02-19T08:51:46Z</time>
      </trkpt>
      <trkpt lat="44.1215" lon="5.23341">
        <ele>529</ele>
        <time>2020-02-19T08:52:02Z</time>
      </trkpt>
      <trkpt lat="44.12174" lon="5.2332">
        <ele>527</ele>
        <time>2020-02-19T08:52:09Z</time>
      </trkpt>
      <trkpt lat="44.12236" lon="5.23258">
        <ele>527</ele>
        <time>2020-02-19T08:52:27Z</time>
      </trkpt>
      <trkpt lat="44.12265" lon="5.232">
        <ele>522</ele>
        <time>2020-02-19T08:52:39Z</time>
      </trkpt>
      <trkpt lat="44.12315" lon="5.23128">
        <ele>518</ele>
        <time>2020-02-19T08:52:55Z</time>
      </trkpt>
      <trkpt lat="44.12354" lon="5.23079">
        <ele>517</ele>
        <time>2020-02-19T08:53:08Z</time>
      </trkpt>
      <trkpt lat="44.12403" lon="5.23007">
        <ele>518</ele>
        <time>2020-02-19T08:53:24Z</time>
      </trkpt>
      <trkpt lat="44.12441" lon="5.22942">
        <ele>518</ele>
        <time>2020-02-19T08:53:38Z</time>
      </trkpt>
      <trkpt lat="44.1246" lon="5.22919">
        <ele>518</ele>
        <time>2020-02-19T08:53:44Z</time>
      </trkpt>
      <trkpt lat="44.12491" lon="5.22868">
        <ele>518</ele>
        <time>2020-02-19T08:53:55Z</time>
      </trkpt>
      <trkpt lat="44.12553" lon="5.22847">
        <ele>518</ele>
        <time>2020-02-19T08:54:10Z</time>
      </trkpt>
      <trkpt lat="44.12561" lon="5.22855">
        <ele>519</ele>
        <time>2020-02-19T08:54:13Z</time>
      </trkpt>
      <trkpt lat="44.12574" lon="5.22899">
        <ele>524</ele>
        <time>2020-02-19T08:54:21Z</time>
      </trkpt>
      <trkpt lat="44.12598" lon="5.22929">
        <ele>528</ele>
        <time>2020-02-19T08:54:28Z</time>
      </trkpt>
      <trkpt lat="44.12616" lon="5.22933">
        <ele>529</ele>
        <time>2020-02-19T08:54:32Z</time>
      </trkpt>
      <trkpt lat="44.12663" lon="5.22904">
        <ele>527</ele>
        <time>2020-02-19T08:54:44Z</time>
      </trkpt>
      <trkpt lat="44.12691" lon="5.22805">
        <ele>522</ele>
        <time>2020-02-19T08:55:02Z</time>
      </trkpt>
      <trkpt lat="44.12724" lon="5.2272">
        <ele>520</ele>
        <time>2020-02-19T08:55:18Z</time>
      </trkpt>
      <trkpt lat="44.12762" lon="5.22658">
        <ele>519</ele>
        <time>2020-02-19T08:55:32Z</time>
      </trkpt>
      <trkpt lat="44.12822" lon="5.22506">
        <ele>509</ele>
        <time>2020-02-19T08:56:01Z</time>
      </trkpt>
      <trkpt lat="44.12836" lon="5.22488">
        <ele>509</ele>
        <time>2020-02-19T08:56:06Z</time>
      </trkpt>
      <trkpt lat="44.12852" lon="5.22481">
        <ele>510</ele>
        <time>2020-02-19T08:56:09Z</time>
      </trkpt>
      <trkpt lat="44.12885" lon="5.22432">
        <ele>507</ele>
        <time>2020-02-19T08:56:21Z</time>
      </trkpt>
      <trkpt lat="44.12914" lon="5.22377">
        <ele>502</ele>
        <time>2020-02-19T08:56:32Z</time>
      </trkpt>
      <trkpt lat="44.12912" lon="5.22311">
        <ele>493</ele>
        <time>2020-02-19T08:56:43Z</time>
      </trkpt>
      <trkpt lat="44.12947" lon="5.22263">
        <ele>487</ele>
        <time>2020-02-19T08:56:55Z</time>
      </trkpt>
      <trkpt lat="44.12954" lon="5.22242">
        <ele>484</ele>
        <time>2020-02-19T08:56:59Z</time>
      </trkpt>
      <trkpt lat="44.13013" lon="5.22153">
        <ele>482</ele>
        <time>2020-02-19T08:57:19Z</time>
      </trkpt>
      <trkpt lat="44.13061" lon="5.22068">
        <ele>485</ele>
        <time>2020-02-19T08:57:37Z</time>
      </trkpt>
      <trkpt lat="44.13101" lon="5.2202">
        <ele>485</ele>
        <time>2020-02-19T08:57:49Z</time>
      </trkpt>
      <trkpt lat="44.13131" lon="5.21979">
        <ele>484</ele>
        <time>2020-02-19T08:57:59Z</time>
      </trkpt>
      <trkpt lat="44.13148" lon="5.21945">
        <ele>482</ele>
        <time>2020-02-19T08:58:06Z</time>
      </trkpt>
      <trkpt lat="44.13187" lon="5.21839">
        <ele>478</ele>
        <time>2020-02-19T08:58:26Z</time>
      </trkpt>
      <trkpt lat="44.13227" lon="5.21793">
        <ele>481</ele>
        <time>2020-02-19T08:58:38Z</time>
      </trkpt>
      <trkpt lat="44.13232" lon="5.2173">
        <ele>479</ele>
        <time>2020-02-19T08:58:49Z</time>
      </trkpt>
      <trkpt lat="44.13248" lon="5.21676">
        <ele>475</ele>
        <time>2020-02-19T08:58:59Z</time>
      </trkpt>
      <trkpt lat="44.13277" lon="5.21612">
        <ele>466</ele>
        <time>2020-02-19T08:59:11Z</time>
      </trkpt>
      <trkpt lat="44.13279" lon="5.2158">
        <ele>461</ele>
        <time>2020-02-19T08:59:17Z</time>
      </trkpt>
      <trkpt lat="44.1327" lon="5.21554">
        <ele>458</ele>
        <time>2020-02-19T08:59:21Z</time>
      </trkpt>
      <trkpt lat="44.13272" lon="5.2151">
        <ele>453</ele>
        <time>2020-02-19T08:59:29Z</time>
      </trkpt>
      <trkpt lat="44.13267" lon="5.21464">
        <ele>448</ele>
        <time>2020-02-19T08:59:37Z</time>
      </trkpt>
      <trkpt lat="44.13275" lon="5.21439">
        <ele>446</ele>
        <time>2020-02-19T08:59:41Z</time>
      </trkpt>
      <trkpt lat="44.13294" lon="5.21434">
        <ele>447</ele>
        <time>2020-02-19T08:59:46Z</time>
      </trkpt>
      <trkpt lat="44.1334" lon="5.21414">
        <ele>449</ele>
        <time>2020-02-19T08:59:57Z</time>
      </trkpt>
      <trkpt lat="44.13383" lon="5.21296">
        <ele>449</ele>
        <time>2020-02-19T09:00:19Z</time>
      </trkpt>
      <trkpt lat="44.13414" lon="5.21167">
        <ele>441</ele>
        <time>2020-02-19T09:00:42Z</time>
      </trkpt>
      <trkpt lat="44.13416" lon="5.21116">
        <ele>437</ele>
        <time>2020-02-19T09:00:51Z</time>
      </trkpt>
      <trkpt lat="44.13423" lon="5.21086">
        <ele>436</ele>
        <time>2020-02-19T09:00:56Z</time>
      </trkpt>
      <trkpt lat="44.13407" lon="5.21054">
        <ele>432</ele>
        <time>2020-02-19T09:01:02Z</time>
      </trkpt>
      <trkpt lat="44.1349" lon="5.2089">
        <ele>433</ele>
        <time>2020-02-19T09:01:36Z</time>
      </trkpt>
      <trkpt lat="44.13549" lon="5.20786">
        <ele>437</ele>
        <time>2020-02-19T09:01:58Z</time>
      </trkpt>
      <trkpt lat="44.13558" lon="5.20754">
        <ele>437</ele>
        <time>2020-02-19T09:02:04Z</time>
      </trkpt>
      <trkpt lat="44.1357" lon="5.20742">
        <ele>439</ele>
        <time>2020-02-19T09:02:07Z</time>
      </trkpt>
      <trkpt lat="44.13597" lon="5.20686">
        <ele>442</ele>
        <time>2020-02-19T09:02:19Z</time>
      </trkpt>
      <trkpt lat="44.13606" lon="5.20633">
        <ele>442</ele>
        <time>2020-02-19T09:02:28Z</time>
      </trkpt>
      <trkpt lat="44.13616" lon="5.20616">
        <ele>442</ele>
        <time>2020-02-19T09:02:32Z</time>
      </trkpt>
      <trkpt lat="44.13634" lon="5.20553">
        <ele>442</ele>
        <time>2020-02-19T09:02:43Z</time>
      </trkpt>
      <trkpt lat="44.13633" lon="5.20486">
        <ele>439</ele>
        <time>2020-02-19T09:02:54Z</time>
      </trkpt>
      <trkpt lat="44.13677" lon="5.204">
        <ele>441</ele>
        <time>2020-02-19T09:03:12Z</time>
      </trkpt>
      <trkpt lat="44.13695" lon="5.20354">
        <ele>439</ele>
        <time>2020-02-19T09:03:21Z</time>
      </trkpt>
      <trkpt lat="44.13731" lon="5.20296">
        <ele>439</ele>
        <time>2020-02-19T09:03:34Z</time>
      </trkpt>
      <trkpt lat="44.13754" lon="5.20221">
        <ele>436</ele>
        <time>2020-02-19T09:03:47Z</time>
      </trkpt>
      <trkpt lat="44.1377" lon="5.20159">
        <ele>434</ele>
        <time>2020-02-19T09:03:58Z</time>
      </trkpt>
      <trkpt lat="44.13777" lon="5.20109">
        <ele>433</ele>
        <time>2020-02-19T09:04:07Z</time>
      </trkpt>
      <trkpt lat="44.13785" lon="5.20085">
        <ele>434</ele>
        <time>2020-02-19T09:04:11Z</time>
      </trkpt>
      <trkpt lat="44.13802" lon="5.20072">
        <ele>435</ele>
        <time>2020-02-19T09:04:16Z</time>
      </trkpt>
      <trkpt lat="44.13824" lon="5.19999">
        <ele>437</ele>
        <time>2020-02-19T09:04:29Z</time>
      </trkpt>
      <trkpt lat="44.13824" lon="5.19967">
        <ele>436</ele>
        <time>2020-02-19T09:04:34Z</time>
      </trkpt>
      <trkpt lat="44.13857" lon="5.19868">
        <ele>438</ele>
        <time>2020-02-19T09:04:53Z</time>
      </trkpt>
      <trkpt lat="44.13883" lon="5.19844">
        <ele>441</ele>
        <time>2020-02-19T09:05:00Z</time>
      </trkpt>
      <trkpt lat="44.13906" lon="5.19834">
        <ele>443</ele>
        <time>2020-02-19T09:05:06Z</time>
      </trkpt>
      <trkpt lat="44.13958" lon="5.19803">
        <ele>447</ele>
        <time>2020-02-19T09:05:19Z</time>
      </trkpt>
      <trkpt lat="44.13985" lon="5.19747">
        <ele>450</ele>
        <time>2020-02-19T09:05:30Z</time>
      </trkpt>
      <trkpt lat="44.14014" lon="5.19705">
        <ele>453</ele>
        <time>2020-02-19T09:05:40Z</time>
      </trkpt>
      <trkpt lat="44.14056" lon="5.19655">
        <ele>455</ele>
        <time>2020-02-19T09:05:53Z</time>
      </trkpt>
      <trkpt lat="44.14117" lon="5.19547">
        <ele>458</ele>
        <time>2020-02-19T09:06:16Z</time>
      </trkpt>
      <trkpt lat="44.14136" lon="5.19507">
        <ele>459</ele>
        <time>2020-02-19T09:06:24Z</time>
      </trkpt>
      <trkpt lat="44.14139" lon="5.19495">
        <ele>459</ele>
        <time>2020-02-19T09:06:26Z</time>
      </trkpt>
      <trkpt lat="44.14194" lon="5.19367">
        <ele>462</ele>
        <time>2020-02-19T09:06:51Z</time>
      </trkpt>
      <trkpt lat="44.14204" lon="5.19334">
        <ele>463</ele>
        <time>2020-02-19T09:06:57Z</time>
      </trkpt>
      <trkpt lat="44.14203" lon="5.19231">
        <ele>460</ele>
        <time>2020-02-19T09:07:14Z</time>
      </trkpt>
      <trkpt lat="44.14189" lon="5.19184">
        <ele>455</ele>
        <time>2020-02-19T09:07:23Z</time>
      </trkpt>
      <trkpt lat="44.14196" lon="5.19157">
        <ele>453</ele>
        <time>2020-02-19T09:07:28Z</time>
      </trkpt>
      <trkpt lat="44.14223" lon="5.19131">
        <ele>451</ele>
        <time>2020-02-19T09:07:35Z</time>
      </trkpt>
      <trkpt lat="44.14216" lon="5.1912">
        <ele>448</ele>
        <time>2020-02-19T09:07:38Z</time>
      </trkpt>
      <trkpt lat="44.14159" lon="5.19134">
        <ele>444</ele>
        <time>2020-02-19T09:07:51Z</time>
      </trkpt>
      <trkpt lat="44.14134" lon="5.19156">
        <ele>444</ele>
        <time>2020-02-19T09:07:58Z</time>
      </trkpt>
      <trkpt lat="44.14121" lon="5.19151">
        <ele>442</ele>
        <time>2020-02-19T09:08:01Z</time>
      </trkpt>
      <trkpt lat="44.14135" lon="5.19125">
        <ele>439</ele>
        <time>2020-02-19T09:08:07Z</time>
      </trkpt>
      <trkpt lat="44.14191" lon="5.19069">
        <ele>436</ele>
        <time>2020-02-19T09:08:23Z</time>
      </trkpt>
      <trkpt lat="44.14223" lon="5.19047">
        <ele>434</ele>
        <time>2020-02-19T09:08:31Z</time>
      </trkpt>
      <trkpt lat="44.14292" lon="5.1903">
        <ele>439</ele>
        <time>2020-02-19T09:08:48Z</time>
      </trkpt>
      <trkpt lat="44.14297" lon="5.19021">
        <ele>439</ele>
        <time>2020-02-19T09:08:49Z</time>
      </trkpt>
      <trkpt lat="44.14289" lon="5.18999">
        <ele>435</ele>
        <time>2020-02-19T09:08:54Z</time>
      </trkpt>
      <trkpt lat="44.14268" lon="5.18978">
        <ele>433</ele>
        <time>2020-02-19T09:09:00Z</time>
      </trkpt>
      <trkpt lat="44.14222" lon="5.18944">
        <ele>426</ele>
        <time>2020-02-19T09:09:12Z</time>
      </trkpt>
      <trkpt lat="44.14198" lon="5.18923">
        <ele>422</ele>
        <time>2020-02-19T09:09:18Z</time>
      </trkpt>
      <trkpt lat="44.14194" lon="5.18901">
        <ele>421</ele>
        <time>2020-02-19T09:09:22Z</time>
      </trkpt>
      <trkpt lat="44.1418" lon="5.18873">
        <ele>418</ele>
        <time>2020-02-19T09:09:28Z</time>
      </trkpt>
      <trkpt lat="44.14185" lon="5.18781">
        <ele>419</ele>
        <time>2020-02-19T09:09:43Z</time>
      </trkpt>
      <trkpt lat="44.14203" lon="5.18703">
        <ele>422</ele>
        <time>2020-02-19T09:09:57Z</time>
      </trkpt>
      <trkpt lat="44.14127" lon="5.18647">
        <ele>419</ele>
        <time>2020-02-19T09:10:17Z</time>
      </trkpt>
      <trkpt lat="44.14095" lon="5.18658">
        <ele>416</ele>
        <time>2020-02-19T09:10:25Z</time>
      </trkpt>
      <trkpt lat="44.14052" lon="5.18637">
        <ele>414</ele>
        <time>2020-02-19T09:10:35Z</time>
      </trkpt>
      <trkpt lat="44.14012" lon="5.18605">
        <ele>411</ele>
        <time>2020-02-19T09:10:46Z</time>
      </trkpt>
      <trkpt lat="44.13967" lon="5.18556">
        <ele>406</ele>
        <time>2020-02-19T09:11:00Z</time>
      </trkpt>
      <trkpt lat="44.13939" lon="5.18512">
        <ele>402</ele>
        <time>2020-02-19T09:11:09Z</time>
      </trkpt>
      <trkpt lat="44.13909" lon="5.18478">
        <ele>396</ele>
        <time>2020-02-19T09:11:18Z</time>
      </trkpt>
      <trkpt lat="44.13878" lon="5.1846">
        <ele>393</ele>
        <time>2020-02-19T09:11:26Z</time>
      </trkpt>
      <trkpt lat="44.13798" lon="5.18432">
        <ele>386</ele>
        <time>2020-02-19T09:11:46Z</time>
      </trkpt>
      <trkpt lat="44.13752" lon="5.18376">
        <ele>382</ele>
        <time>2020-02-19T09:12:00Z</time>
      </trkpt>
      <trkpt lat="44.13661" lon="5.18311">
        <ele>378</ele>
        <time>2020-02-19T09:12:24Z</time>
      </trkpt>
      <trkpt lat="44.13622" lon="5.18288">
        <ele>374</ele>
        <time>2020-02-19T09:12:34Z</time>
      </trkpt>
      <trkpt lat="44.13596" lon="5.18264">
        <ele>372</ele>
        <time>2020-02-19T09:12:41Z</time>
      </trkpt>
      <trkpt lat="44.13544" lon="5.18234">
        <ele>367</ele>
        <time>2020-02-19T09:12:54Z</time>
      </trkpt>
      <trkpt lat="44.13525" lon="5.18228">
        <ele>366</ele>
        <time>2020-02-19T09:12:59Z</time>
      </trkpt>
      <trkpt lat="44.13494" lon="5.18208">
        <ele>364</ele>
        <time>2020-02-19T09:13:07Z</time>
      </trkpt>
      <trkpt lat="44.13454" lon="5.18168">
        <ele>364</ele>
        <time>2020-02-19T09:13:18Z</time>
      </trkpt>
      <trkpt lat="44.13426" lon="5.18148">
        <ele>365</ele>
        <time>2020-02-19T09:13:25Z</time>
      </trkpt>
      <trkpt lat="44.13396" lon="5.18159">
        <ele>367</ele>
        <time>2020-02-19T09:13:33Z</time>
      </trkpt>
      <trkpt lat="44.13379" lon="5.18144">
        <ele>370</ele>
        <time>2020-02-19T09:13:37Z</time>
      </trkpt>
      <trkpt lat="44.13345" lon="5.18163">
        <ele>371</ele>
        <time>2020-02-19T09:13:46Z</time>
      </trkpt>
      <trkpt lat="44.13309" lon="5.18172">
        <ele>373</ele>
        <time>2020-02-19T09:13:54Z</time>
      </trkpt>
      <trkpt lat="44.13282" lon="5.18196">
        <ele>373</ele>
        <time>2020-02-19T09:14:02Z</time>
      </trkpt>
      <trkpt lat="44.13267" lon="5.18205">
        <ele>374</ele>
        <time>2020-02-19T09:14:06Z</time>
      </trkpt>
      <trkpt lat="44.13257" lon="5.182">
        <ele>375</ele>
        <time>2020-02-19T09:14:08Z</time>
      </trkpt>
      <trkpt lat="44.1326" lon="5.18166">
        <ele>376</ele>
        <time>2020-02-19T09:14:14Z</time>
      </trkpt>
      <trkpt lat="44.13223" lon="5.18144">
        <ele>376</ele>
        <time>2020-02-19T09:14:23Z</time>
      </trkpt>
      <trkpt lat="44.13203" lon="5.18123">
        <ele>374</ele>
        <time>2020-02-19T09:14:29Z</time>
      </trkpt>
      <trkpt lat="44.13101" lon="5.18121">
        <ele>364</ele>
        <time>2020-02-19T09:14:53Z</time>
      </trkpt>
      <trkpt lat="44.13028" lon="5.18103">
        <ele>355</ele>
        <time>2020-02-19T09:15:10Z</time>
      </trkpt>
      <trkpt lat="44.12926" lon="5.18036">
        <ele>340</ele>
        <time>2020-02-19T09:15:37Z</time>
      </trkpt>
      <trkpt lat="44.12876" lon="5.18012">
        <ele>336</ele>
        <time>2020-02-19T09:15:49Z</time>
      </trkpt>
      <trkpt lat="44.1284" lon="5.17973">
        <ele>332</ele>
        <time>2020-02-19T09:16:00Z</time>
      </trkpt>
      <trkpt lat="44.12764" lon="5.17966">
        <ele>324</ele>
        <time>2020-02-19T09:16:17Z</time>
      </trkpt>
      <trkpt lat="44.12687" lon="5.17932">
        <ele>319</ele>
        <time>2020-02-19T09:16:36Z</time>
      </trkpt>
      <trkpt lat="44.12607" lon="5.17914">
        <ele>317</ele>
        <time>2020-02-19T09:16:55Z</time>
      </trkpt>
      <trkpt lat="44.12644" lon="5.17807">
        <ele>323</ele>
        <time>2020-02-19T09:17:15Z</time>
      </trkpt>
      <trkpt lat="44.12736" lon="5.17485">
        <ele>329</ele>
        <time>2020-02-19T09:18:13Z</time>
      </trkpt>
      <trkpt lat="44.12749" lon="5.17311">
        <ele>323</ele>
        <time>2020-02-19T09:18:43Z</time>
      </trkpt>
      <trkpt lat="44.12763" lon="5.17272">
        <ele>319</ele>
        <time>2020-02-19T09:18:50Z</time>
      </trkpt>
      <trkpt lat="44.12815" lon="5.17184">
        <ele>321</ele>
        <time>2020-02-19T09:19:09Z</time>
      </trkpt>
      <trkpt lat="44.1273" lon="5.17141">
        <ele>316</ele>
        <time>2020-02-19T09:19:30Z</time>
      </trkpt>
      <trkpt lat="44.12667" lon="5.17114">
        <ele>312</ele>
        <time>2020-02-19T09:19:46Z</time>
      </trkpt>
      <trkpt lat="44.12631" lon="5.17216">
        <ele>311</ele>
        <time>2020-02-19T09:20:05Z</time>
      </trkpt>
      <trkpt lat="44.12586" lon="5.17225">
        <ele>308</ele>
        <time>2020-02-19T09:20:15Z</time>
      </trkpt>
      <trkpt lat="44.12541" lon="5.17266">
        <ele>305</ele>
        <time>2020-02-19T09:20:28Z</time>
      </trkpt>
      <trkpt lat="44.12519" lon="5.17264">
        <ele>300</ele>
        <time>2020-02-19T09:20:33Z</time>
      </trkpt>
      <trkpt lat="44.1247" lon="5.1725">
        <ele>294</ele>
        <time>2020-02-19T09:20:45Z</time>
      </trkpt>
    </trkseg>
  </trk>
</gpx>